Portada
METAR-TAF:

METAR-TAF

Aeropuertos :

Aeropuerto Internacional de Malé

Malé, Maldivas

latitud: 04-12N, longitud: 073-32E, altitud: 2 m

Observación

El informe se hizo hace 1 hora y 3 minutos, a las 03:00 UTC
Viento 6 kt del oeste-suroeste
Temperatura 30°C
Humedad 70%
Presión 1014 hPa
Visibilidad 10 km o más
Escasas nubes a una altura de 1800 ft
Cielo nuboso a una altura de 27000 ft

METAR: VRMM 220300Z 24006KT 9999 FEW018 BKN270 30/24 Q1014 NOSIG

Hora: 09:03 (04:03 UTC)

Pronóstico

El informe se hizo hace 5 horas y 3 minutos, a las 23:00 UTC
Pronóstico válido del 22 a las 00 UTC al 23 a las 06 UTC
Viento 4 kt del oeste-suroeste
Visibilidad 10 km o más
Escasas nubes a una altura de 1800 ft
Temporalmente
del 22 a las 02 UTC al 22 a las 08 UTC
Visibilidad: 5000 m
Escasas nubes a una altura de 1700 ft
chaparrones de lluvia

TAF: VRMM 212300Z 2200/2306 25004KT 9999 FEW018 TEMPO 2202/2208 5000 -SHRA FEW017

Observaciones y pronósticos meteorológicos de más de 4000 aeropuertos (mensajes METAR y TAF).

Los puntos amarillos y rojos representan las estaciones disponibles.

Ponga el ratón en el punto deseado para ver el nombre de la estación.

Haga clic para ver las observaciones y los pronósticos meteorológicos.

Para cambiar el mapa : haga clic en los botones verdes con una cruz de color negro para hacer un zoom, en el botón verde con un guión para alejar o en las flechas verdes para mapas adyacentes.


METAR-TAF: